createdAt,value
2019-02-17T00:01:48.685Z,4.88
2019-02-17T00:04:28.852Z,4.88
2019-02-17T00:07:15.159Z,4.88
2019-02-17T00:09:54.304Z,3.94
2019-02-17T00:12:28.262Z,3.94
2019-02-17T00:14:58.853Z,3.88
2019-02-17T00:17:33.569Z,3.72
2019-02-17T00:20:15.414Z,4.10
2019-02-17T00:22:56.967Z,4.10
2019-02-17T00:25:32.522Z,4.01
2019-02-17T00:28:07.960Z,3.87
2019-02-17T00:30:49.097Z,4.27
2019-02-17T00:33:27.547Z,4.36
2019-02-17T00:36:10.633Z,4.78
2019-02-17T00:38:51.697Z,5.24
2019-02-17T00:41:37.211Z,5.44
2019-02-17T00:44:22.079Z,5.44
2019-02-17T00:47:05.466Z,5.57
2019-02-17T00:49:47.085Z,5.83
2019-02-17T00:52:26.979Z,5.99
2019-02-17T00:55:05.937Z,5.94
2019-02-17T00:57:46.780Z,5.72
2019-02-17T01:00:31.593Z,5.68
2019-02-17T01:03:22.820Z,5.67
2019-02-17T01:06:07.476Z,5.41
2019-02-17T01:08:48.230Z,4.67
2019-02-17T01:11:22.920Z,4.07
2019-02-17T01:13:55.022Z,3.87
2019-02-17T01:16:33.730Z,3.87
2019-02-17T01:19:10.928Z,3.59
2019-02-17T01:21:48.381Z,3.30
2019-02-17T01:24:20.738Z,3.30
2019-02-17T01:26:57.432Z,3.14
2019-02-17T01:29:34.689Z,2.98
2019-02-17T01:32:13.062Z,2.72
2019-02-17T01:34:56.576Z,2.41
2019-02-17T01:37:50.475Z,2.21
2019-02-17T01:40:35.234Z,2.50
2019-02-17T01:43:12.275Z,2.17
2019-02-17T01:45:52.314Z,1.90
2019-02-17T01:48:29.570Z,1.90
2019-02-17T01:51:02.766Z,1.95
2019-02-17T01:53:36.369Z,1.86
2019-02-17T01:56:21.125Z,1.76
2019-02-17T01:58:58.078Z,1.66
2019-02-17T02:01:33.807Z,1.57
2019-02-17T02:04:14.408Z,1.87
2019-02-17T02:06:58.613Z,2.97
2019-02-17T02:09:34.841Z,3.82
2019-02-17T02:12:21.953Z,3.82
2019-02-17T02:15:02.710Z,3.69
2019-02-17T02:17:49.110Z,3.45
2019-02-17T02:20:32.673Z,3.11
2019-02-17T02:23:14.300Z,3.00
2019-02-17T02:25:53.922Z,2.92
2019-02-17T02:28:33.462Z,3.48
2019-02-17T02:31:23.943Z,4.45
2019-02-17T02:34:04.213Z,4.62
2019-02-17T02:36:56.395Z,4.86
2019-02-17T02:39:40.103Z,4.86
2019-02-17T02:42:30.182Z,5.09
2019-02-17T02:45:05.381Z,4.81
2019-02-17T02:47:40.722Z,3.85
2019-02-17T02:50:18.889Z,3.34
2019-02-17T02:52:59.522Z,3.34
2019-02-17T02:55:39.735Z,3.14
2019-02-17T02:58:21.003Z,2.47
2019-02-17T03:00:56.997Z,2.26
2019-02-17T03:03:41.316Z,2.36
2019-02-17T03:06:23.126Z,2.36
2019-02-17T03:09:07.131Z,2.21
2019-02-17T03:11:57.987Z,1.98
2019-02-17T03:14:33.363Z,1.89
2019-02-17T03:17:17.905Z,2.02
2019-02-17T03:20:01.105Z,2.07
2019-02-17T03:22:42.840Z,2.66
2019-02-17T03:25:20.331Z,3.04
2019-02-17T03:27:56.385Z,3.04
2019-02-17T03:30:31.629Z,2.70
2019-02-17T03:33:06.702Z,2.32
2019-02-17T03:35:40.400Z,2.00
2019-02-17T03:38:27.713Z,1.66
2019-02-17T03:41:10.534Z,1.42
2019-02-17T03:43:46.549Z,1.14
2019-02-17T03:46:33.222Z,0.88
2019-02-17T03:49:17.251Z,0.97
2019-02-17T03:51:58.801Z,1.10
2019-02-17T03:54:36.136Z,1.16
2019-02-17T03:57:21.686Z,1.30
2019-02-17T04:00:16.488Z,1.37
2019-02-17T04:02:57.351Z,1.61
2019-02-17T04:05:42.148Z,1.58
2019-02-17T04:08:27.015Z,1.38
2019-02-17T04:11:13.264Z,1.21
2019-02-17T04:13:51.469Z,1.04
2019-02-17T04:16:28.524Z,1.14
2019-02-17T04:19:07.018Z,1.03
2019-02-17T04:21:50.666Z,1.42
2019-02-17T04:24:32.919Z,1.66
2019-02-17T04:27:09.084Z,1.71
2019-02-17T04:29:49.288Z,1.72
2019-02-17T04:32:28.087Z,1.68
2019-02-17T04:35:07.717Z,1.51
2019-02-17T04:37:51.926Z,1.30
2019-02-17T04:40:28.495Z,1.10
2019-02-17T04:43:08.527Z,1.01
2019-02-17T04:45:52.310Z,0.89
2019-02-17T04:48:36.834Z,0.86
2019-02-17T04:51:18.489Z,1.30
2019-02-17T04:54:00.179Z,1.58
2019-02-17T04:56:42.315Z,1.81
2019-02-17T04:59:20.772Z,1.97
2019-02-17T05:02:00.242Z,2.31
2019-02-17T05:04:45.092Z,2.21
2019-02-17T05:07:23.685Z,1.95
2019-02-17T05:10:00.483Z,1.94
2019-02-17T05:12:36.558Z,1.93
2019-02-17T05:15:09.649Z,1.71
2019-02-17T05:17:48.615Z,1.47
2019-02-17T05:20:32.648Z,1.34
2019-02-17T05:23:10.126Z,1.26
2019-02-17T05:25:45.427Z,1.30
2019-02-17T05:28:27.080Z,1.27
2019-02-17T05:31:06.339Z,1.14
2019-02-17T05:40:24.914Z,0.74
2019-02-17T05:43:07.415Z,0.65
2019-02-17T05:45:42.166Z,1.51
2019-02-17T05:48:47.112Z,1.63
2019-02-17T05:51:28.271Z,1.67
2019-02-17T05:54:08.666Z,1.92
2019-02-17T05:56:39.851Z,1.58
2019-02-17T05:59:30.761Z,1.31
2019-02-17T06:02:10.963Z,1.16
2019-02-17T06:05:18.072Z,1.09
2019-02-17T06:08:00.821Z,1.03
2019-02-17T06:10:45.263Z,1.19
2019-02-17T06:14:00.011Z,1.29
2019-02-17T06:17:06.552Z,1.28
2019-02-17T06:19:50.037Z,1.11
2019-02-17T06:23:10.532Z,1.05
2019-02-17T06:26:10.047Z,1.32
2019-02-17T06:29:15.449Z,1.91
2019-02-17T06:32:40.924Z,2.84
2019-02-17T06:35:41.714Z,3.48
2019-02-17T06:38:30.654Z,4.09
2019-02-17T06:41:05.548Z,4.09
2019-02-17T06:43:48.123Z,4.63
2019-02-17T06:46:44.460Z,5.08
2019-02-17T06:49:51.461Z,5.39
2019-02-17T06:52:57.868Z,5.69
2019-02-17T06:58:42.414Z,6.52
2019-02-17T07:01:24.467Z,6.98
2019-02-17T07:04:30.130Z,7.08
2019-02-17T07:13:44.495Z,7.87
2019-02-17T07:16:14.294Z,8.11
2019-02-17T07:18:55.160Z,8.29
2019-02-17T07:22:01.148Z,8.34
2019-02-17T07:24:33.684Z,8.73
2019-02-17T07:27:10.354Z,9.16
2019-02-17T07:29:40.974Z,9.35
2019-02-17T07:32:15.677Z,9.70
2019-02-17T07:34:46.223Z,9.84
2019-02-17T07:37:19.276Z,10.02
2019-02-17T07:43:14.658Z,10.18
2019-02-17T07:45:44.528Z,10.37
2019-02-17T07:48:14.681Z,10.63
2019-02-17T07:50:48.162Z,10.90
2019-02-17T07:53:18.032Z,10.73
2019-02-17T07:55:47.905Z,10.79
2019-02-17T07:58:17.830Z,11.07
2019-02-17T08:00:47.949Z,11.06
2019-02-17T08:03:17.758Z,11.31
2019-02-17T08:05:47.690Z,11.35
2019-02-17T08:08:39.651Z,11.51
2019-02-17T08:11:29.777Z,11.67
2019-02-17T08:14:02.733Z,11.72
2019-02-17T08:16:34.053Z,11.99
2019-02-17T08:19:03.875Z,12.44
2019-02-17T08:21:55.837Z,12.36
2019-02-17T08:24:47.360Z,12.26
2019-02-17T08:27:40.798Z,12.39
2019-02-17T08:30:26.471Z,12.58
2019-02-17T08:32:56.268Z,13.05
2019-02-17T08:35:26.182Z,13.57
2019-02-17T08:37:56.964Z,13.77
2019-02-17T08:40:54.377Z,13.96
2019-02-17T08:43:26.718Z,13.93
2019-02-17T08:46:07.011Z,13.77
2019-02-17T08:48:40.500Z,13.84
2019-02-17T08:51:10.542Z,14.13
2019-02-17T08:53:40.980Z,14.32
2019-02-17T08:56:10.877Z,14.09
2019-02-17T08:58:40.891Z,14.28
2019-02-17T09:01:10.950Z,14.39
2019-02-17T09:03:48.347Z,14.55
2019-02-17T09:06:45.043Z,14.49
2019-02-17T09:09:48.440Z,14.90
2019-02-17T09:12:21.413Z,15.35
2019-02-17T09:15:00.053Z,15.67
2019-02-17T09:17:35.427Z,15.87
2019-02-17T09:20:23.108Z,16.10
2019-02-17T09:23:10.405Z,16.03
2019-02-17T09:26:21.543Z,16.37
2019-02-17T09:29:22.758Z,16.57
2019-02-17T09:32:17.659Z,16.65
2019-02-17T09:35:12.556Z,15.85
2019-02-17T09:37:52.684Z,16.75
2019-02-17T09:40:23.241Z,16.57
2019-02-17T09:43:14.032Z,16.10
2019-02-17T09:45:44.406Z,16.13
2019-02-17T09:48:14.652Z,16.17
2019-02-17T09:51:11.459Z,16.45
2019-02-17T09:53:46.467Z,16.47
2019-02-17T09:56:16.440Z,16.15
2019-02-17T09:58:46.658Z,15.71
2019-02-17T10:01:30.329Z,16.82
2019-02-17T10:04:24.379Z,15.79
2019-02-17T10:07:05.399Z,16.58
2019-02-17T10:09:36.569Z,15.55
2019-02-17T10:12:33.964Z,16.20
2019-02-17T10:15:33.606Z,16.26
2019-02-17T10:18:38.962Z,16.18
2019-02-17T10:21:12.971Z,17.09
2019-02-17T10:23:48.823Z,16.96
2019-02-17T10:26:39.585Z,17.06
2019-02-17T10:29:24.846Z,16.78
2019-02-17T10:31:58.853Z,17.06
2019-02-17T10:34:55.467Z,17.17
2019-02-17T10:37:50.774Z,17.98
2019-02-17T10:40:33.092Z,18.43
2019-02-17T10:43:05.170Z,18.08
2019-02-17T10:45:47.581Z,17.64
2019-02-17T10:48:34.157Z,18.31
2019-02-17T10:51:07.085Z,18.71
2019-02-17T10:53:49.299Z,19.18
2019-02-17T10:56:29.404Z,19.01
2019-02-17T10:59:26.782Z,18.79
2019-02-17T11:02:22.461Z,19.22
2019-02-17T11:04:57.527Z,19.20
2019-02-17T11:07:30.135Z,18.92
2019-02-17T11:10:00.842Z,18.76
2019-02-17T11:12:55.620Z,18.75
2019-02-17T11:15:27.378Z,18.51
2019-02-17T11:18:00.385Z,19.13
2019-02-17T11:20:30.203Z,18.01
2019-02-17T11:23:34.615Z,18.59
2019-02-17T11:26:08.879Z,19.02
2019-02-17T11:28:38.692Z,18.56
2019-02-17T11:31:13.422Z,18.28
2019-02-17T11:33:45.157Z,18.30
2019-02-17T11:36:18.863Z,18.02
2019-02-17T11:38:58.354Z,18.45
2019-02-17T11:41:32.236Z,17.85
2019-02-17T11:44:27.087Z,17.86
2019-02-17T11:47:25.491Z,18.11
2019-02-17T11:50:19.607Z,18.52
2019-02-17T11:53:09.659Z,18.64
2019-02-17T11:55:39.540Z,18.13
2019-02-17T11:58:46.181Z,17.76
2019-02-17T12:01:33.537Z,18.50
2019-02-17T12:04:03.725Z,18.70
2019-02-17T12:06:42.367Z,18.31
2019-02-17T12:09:18.179Z,19.18
2019-02-17T12:11:51.190Z,18.87
2019-02-17T12:14:49.583Z,18.69
2019-02-17T12:17:24.536Z,19.59
2019-02-17T12:19:57.906Z,18.57
2019-02-17T12:22:30.528Z,19.57
2019-02-17T12:25:06.976Z,18.60
2019-02-17T12:28:03.003Z,18.88
2019-02-17T12:31:03.547Z,18.64
2019-02-17T12:33:38.155Z,18.77
2019-02-17T12:36:29.260Z,17.64
2019-02-17T12:39:01.712Z,17.66
2019-02-17T12:41:37.037Z,17.98
2019-02-17T12:44:20.076Z,19.00
2019-02-17T12:47:12.752Z,19.22
2019-02-17T12:50:12.691Z,18.94
2019-02-17T12:53:05.539Z,19.53
2019-02-17T12:56:04.376Z,19.69
2019-02-17T12:59:29.586Z,19.94
2019-02-17T13:02:23.375Z,20.53
2019-02-17T13:05:05.092Z,19.33
2019-02-17T13:07:42.903Z,19.80
2019-02-17T13:10:46.619Z,20.54
2019-02-17T13:13:41.030Z,21.07
2019-02-17T13:16:36.730Z,21.38
2019-02-17T13:19:12.289Z,20.43
2019-02-17T13:22:03.215Z,20.88
2019-02-17T13:24:38.096Z,21.15
2019-02-17T13:27:12.286Z,22.11
2019-02-17T13:30:04.061Z,22.24
2019-02-17T13:33:17.960Z,22.34
2019-02-17T13:39:08.105Z,21.48
2019-02-17T13:41:41.289Z,20.97
2019-02-17T13:44:18.606Z,21.22
2019-02-17T13:47:27.008Z,21.22
2019-02-17T13:50:14.853Z,21.72
2019-02-17T13:52:46.825Z,21.88
2019-02-17T13:55:30.129Z,21.23
2019-02-17T13:58:26.766Z,21.51
2019-02-17T14:01:05.446Z,21.59
2019-02-17T14:03:50.919Z,21.34
2019-02-17T14:07:11.968Z,21.19
2019-02-17T14:15:46.547Z,21.40
2019-02-17T14:18:16.730Z,21.58
2019-02-17T14:20:47.011Z,21.20
2019-02-17T14:24:04.076Z,20.84
2019-02-17T14:27:19.496Z,20.82
2019-02-17T14:30:30.248Z,20.71
2019-02-17T14:33:26.866Z,20.51
2019-02-17T14:36:36.841Z,20.57
2019-02-17T14:39:21.116Z,20.52
2019-02-17T14:42:08.097Z,19.45
2019-02-17T14:45:34.861Z,18.36
2019-02-17T14:51:41.792Z,16.57
2019-02-17T14:54:33.015Z,15.99
2019-02-17T14:57:11.052Z,15.61
2019-02-17T14:59:42.473Z,15.33
2019-02-17T15:02:12.383Z,15.39
2019-02-17T15:04:45.110Z,15.38
2019-02-17T15:07:20.819Z,15.18
2019-02-17T15:10:37.259Z,14.97
2019-02-17T15:20:28.957Z,14.64
2019-02-17T15:26:44.195Z,14.39
2019-02-17T15:29:31.707Z,14.32
2019-02-17T15:32:13.498Z,14.17
2019-02-17T15:37:59.372Z,14.18
2019-02-17T15:40:29.873Z,14.40
2019-02-17T15:43:02.218Z,14.40
2019-02-17T15:45:32.258Z,14.39
2019-02-17T15:48:07.152Z,14.23
2019-02-17T15:51:16.834Z,14.14
2019-02-17T15:54:31.645Z,13.99
2019-02-17T16:03:58.606Z,14.17
2019-02-17T16:10:43.031Z,13.95
2019-02-17T16:13:56.296Z,13.84
2019-02-17T16:17:01.901Z,13.76
2019-02-17T16:20:05.768Z,13.82
2019-02-17T16:23:03.434Z,13.68
2019-02-17T16:25:38.825Z,13.79
2019-02-17T16:28:08.678Z,13.40
2019-02-17T16:30:38.555Z,13.63
2019-02-17T16:33:08.441Z,13.79
2019-02-17T16:35:38.361Z,13.62
2019-02-17T16:38:08.138Z,13.36
2019-02-17T16:40:38.069Z,13.24
2019-02-17T16:43:07.915Z,13.11
2019-02-17T16:45:37.705Z,13.05
2019-02-17T16:48:09.143Z,12.96
2019-02-17T16:50:38.901Z,12.86
2019-02-17T16:53:08.820Z,12.90
2019-02-17T16:55:38.647Z,12.88
2019-02-17T16:58:08.507Z,12.88
2019-02-17T17:00:38.337Z,12.79
2019-02-17T17:03:08.163Z,12.78
2019-02-17T17:05:37.970Z,12.78
2019-02-17T17:08:07.867Z,12.69
2019-02-17T17:10:37.673Z,12.51
2019-02-17T17:13:07.479Z,12.51
2019-02-17T17:15:37.406Z,12.48
2019-02-17T17:18:07.275Z,12.31
2019-02-17T17:20:38.416Z,12.40
2019-02-17T17:23:08.283Z,12.33
2019-02-17T17:25:38.102Z,12.18
2019-02-17T17:28:08.711Z,12.11
2019-02-17T17:30:41.612Z,11.99
2019-02-17T17:33:11.407Z,11.88
2019-02-17T17:35:41.280Z,11.80
2019-02-17T17:38:11.148Z,11.93
2019-02-17T17:40:40.977Z,11.81
2019-02-17T17:43:10.732Z,11.53
2019-02-17T17:45:43.252Z,11.27
2019-02-17T17:48:13.218Z,11.14
2019-02-17T17:50:56.502Z,11.03
2019-02-17T17:53:26.317Z,11.00
2019-02-17T17:55:56.219Z,11.02
2019-02-17T17:58:26.020Z,10.95
2019-02-17T18:00:55.867Z,10.93
2019-02-17T18:03:30.999Z,11.02
2019-02-17T18:06:01.582Z,11.29
2019-02-17T18:08:31.430Z,11.13
2019-02-17T18:11:01.255Z,10.98
2019-02-17T18:13:32.916Z,10.84
2019-02-17T18:16:02.887Z,10.65
2019-02-17T18:18:32.650Z,10.43
2019-02-17T18:21:03.592Z,10.56
2019-02-17T18:23:33.387Z,10.77
2019-02-17T18:26:03.228Z,10.87
2019-02-17T18:28:33.729Z,11.11
2019-02-17T18:31:03.955Z,11.10
2019-02-17T18:33:33.870Z,11.06
2019-02-17T18:36:05.631Z,10.70
2019-02-17T18:38:37.437Z,10.61
2019-02-17T18:41:07.299Z,10.53
2019-02-17T18:43:39.679Z,10.26
2019-02-17T18:46:09.612Z,9.91
2019-02-17T18:48:41.711Z,9.48
2019-02-17T18:51:12.946Z,9.56
2019-02-17T18:53:42.821Z,9.69
2019-02-17T18:56:14.628Z,10.43
2019-02-17T18:58:45.380Z,10.25
2019-02-17T19:01:17.709Z,10.00
2019-02-17T19:03:53.924Z,9.81
2019-02-17T19:06:25.397Z,9.67
2019-02-17T19:08:57.044Z,9.52
2019-02-17T19:11:27.829Z,9.48
2019-02-17T19:14:00.771Z,9.81
2019-02-17T19:16:32.658Z,9.87
2019-02-17T19:19:04.744Z,9.84
2019-02-17T19:21:36.677Z,9.52
2019-02-17T19:24:07.311Z,9.24
2019-02-17T19:26:38.503Z,8.79
2019-02-17T19:29:32.323Z,8.36
2019-02-17T19:32:05.632Z,7.98
2019-02-17T19:34:37.940Z,7.60
2019-02-17T19:37:10.132Z,7.64
2019-02-17T19:39:41.278Z,7.39
2019-02-17T19:42:17.369Z,7.30
2019-02-17T19:44:48.514Z,7.11
2019-02-17T19:47:24.975Z,7.08
2019-02-17T19:49:55.826Z,7.39
2019-02-17T19:52:33.780Z,7.31
2019-02-17T19:55:12.295Z,7.03
2019-02-17T19:57:50.633Z,6.78
2019-02-17T20:00:22.589Z,6.70
2019-02-17T20:03:03.586Z,7.11
2019-02-17T20:05:40.808Z,8.37
2019-02-17T20:08:11.444Z,8.03
2019-02-17T20:10:41.328Z,7.49
2019-02-17T20:13:11.619Z,7.37
2019-02-17T20:15:41.643Z,8.59
2019-02-17T20:18:11.734Z,8.45
2019-02-17T20:20:41.599Z,7.99
2019-02-17T20:23:14.672Z,7.58
2019-02-17T20:25:44.502Z,7.67
2019-02-17T20:28:14.488Z,7.92
2019-02-17T20:30:44.387Z,8.16
2019-02-17T20:33:14.454Z,8.34
2019-02-17T20:35:45.364Z,8.55
2019-02-17T20:38:15.514Z,8.90
2019-02-17T20:40:45.417Z,9.12
2019-02-17T20:43:16.761Z,9.03
2019-02-17T20:45:46.644Z,8.58
2019-02-17T20:48:17.905Z,7.97
2019-02-17T20:50:48.647Z,7.39
2019-02-17T20:53:22.207Z,7.00
2019-02-17T20:55:51.991Z,6.62
2019-02-17T20:58:23.383Z,6.65
2019-02-17T21:00:55.093Z,7.03
2019-02-17T21:03:31.294Z,7.70
2019-02-17T21:06:12.792Z,7.88
2019-02-17T21:08:42.251Z,8.11
2019-02-17T21:11:12.168Z,8.36
2019-02-17T21:13:45.214Z,8.48
2019-02-17T21:16:15.119Z,8.52
2019-02-17T21:18:50.608Z,8.35
2019-02-17T21:21:28.139Z,8.25
2019-02-17T21:24:02.975Z,7.92
2019-02-17T21:26:41.829Z,7.89
2019-02-17T21:29:17.189Z,7.53
2019-02-17T21:32:01.997Z,7.71
2019-02-17T21:34:38.765Z,7.99
2019-02-17T21:37:18.688Z,7.78
2019-02-17T21:39:56.827Z,7.87
2019-02-17T21:42:37.396Z,7.92
2019-02-17T21:45:11.936Z,7.68
2019-02-17T21:47:47.095Z,7.59
2019-02-17T21:50:24.545Z,7.69
2019-02-17T21:52:59.960Z,7.51
2019-02-17T21:55:29.904Z,7.21
2019-02-17T21:58:07.045Z,7.28
2019-02-17T22:00:40.965Z,7.20
2019-02-17T22:03:21.471Z,7.20
2019-02-17T22:05:57.988Z,7.34
2019-02-17T22:08:37.244Z,7.25
2019-02-17T22:11:15.749Z,7.20
2019-02-17T22:13:55.291Z,7.29
2019-02-17T22:16:33.084Z,7.36
2019-02-17T22:19:15.413Z,7.29
2019-02-17T22:22:13.129Z,7.15
2019-02-17T22:24:52.825Z,7.19
2019-02-17T22:27:36.974Z,7.13
2019-02-17T22:30:17.403Z,7.06
2019-02-17T22:32:52.871Z,6.97
2019-02-17T22:35:31.874Z,7.08
2019-02-17T22:38:08.440Z,7.14
2019-02-17T22:40:45.128Z,7.14
2019-02-17T22:43:20.512Z,7.08
2019-02-17T22:46:00.918Z,6.92
2019-02-17T22:48:35.805Z,6.22
2019-02-17T22:51:45.864Z,6.41
2019-02-17T22:54:48.681Z,6.05
2019-02-17T22:57:41.275Z,5.66
2019-02-17T23:00:38.518Z,5.45
2019-02-17T23:03:11.497Z,5.05
2019-02-17T23:05:45.202Z,4.85
2019-02-17T23:08:16.184Z,4.46
2019-02-17T23:10:48.605Z,4.23
2019-02-17T23:13:18.579Z,4.10
2019-02-17T23:15:55.656Z,4.44
2019-02-17T23:18:27.832Z,5.11
2019-02-17T23:20:57.597Z,5.37
2019-02-17T23:23:28.522Z,5.23
2019-02-17T23:26:09.047Z,5.74
2019-02-17T23:28:40.803Z,5.40
2019-02-17T23:31:11.575Z,5.12
2019-02-17T23:33:42.314Z,5.03
2019-02-17T23:36:16.311Z,4.92
2019-02-17T23:38:47.847Z,4.87
2019-02-17T23:41:21.494Z,4.75
2019-02-17T23:43:51.326Z,4.71
2019-02-17T23:46:21.086Z,4.59
2019-02-17T23:48:55.495Z,4.40
2019-02-17T23:51:26.846Z,4.25
2019-02-17T23:53:58.485Z,4.21
2019-02-17T23:56:33.715Z,4.09
2019-02-17T23:59:06.552Z,3.99
